createdAt,value
2018-11-29T00:01:46.638Z,6.73
2018-11-29T00:04:17.065Z,6.73
2018-11-29T00:07:02.539Z,4.07
2018-11-29T00:09:38.008Z,4.47
2018-11-29T00:12:09.200Z,4.00
2018-11-29T00:14:39.436Z,3.50
2018-11-29T00:17:09.775Z,3.23
2018-11-29T00:19:40.184Z,2.20
2018-11-29T00:22:10.545Z,1.83
2018-11-29T00:24:40.763Z,1.90
2018-11-29T00:27:11.080Z,2.00
2018-11-29T00:29:41.418Z,1.97
2018-11-29T00:32:11.709Z,1.77
2018-11-29T00:34:42.149Z,1.43
2018-11-29T00:37:12.482Z,1.60
2018-11-29T00:39:42.950Z,1.57
2018-11-29T00:42:13.301Z,1.50
2018-11-29T00:44:43.609Z,1.80
2018-11-29T00:47:13.993Z,1.70
2018-11-29T00:49:44.276Z,1.70
2018-11-29T00:52:14.532Z,1.87
2018-11-29T00:54:44.916Z,2.13
2018-11-29T00:57:15.201Z,1.93
2018-11-29T00:59:45.450Z,2.30
2018-11-29T01:02:15.661Z,1.70
2018-11-29T01:04:45.864Z,1.80
2018-11-29T01:07:16.257Z,1.90
2018-11-29T01:09:46.960Z,1.50
2018-11-29T01:12:17.296Z,1.70
2018-11-29T01:14:48.051Z,1.90
2018-11-29T01:17:18.329Z,2.00
2018-11-29T01:19:48.550Z,2.23
2018-11-29T01:22:18.941Z,3.93
2018-11-29T01:24:49.092Z,4.10
2018-11-29T01:27:19.377Z,3.43
2018-11-29T01:29:49.580Z,3.10
2018-11-29T01:32:20.034Z,2.87
2018-11-29T01:34:50.231Z,3.03
2018-11-29T01:37:20.494Z,2.97
2018-11-29T01:39:50.950Z,2.80
2018-11-29T01:42:21.156Z,2.47
2018-11-29T01:44:51.777Z,2.10
2018-11-29T01:47:22.283Z,2.20
2018-11-29T01:49:52.732Z,1.73
2018-11-29T01:52:22.968Z,1.80
2018-11-29T01:54:53.159Z,1.70
2018-11-29T01:57:23.359Z,1.70
2018-11-29T01:59:53.565Z,1.80
2018-11-29T02:02:23.993Z,1.43
2018-11-29T02:04:54.376Z,1.57
2018-11-29T02:07:24.980Z,1.40
2018-11-29T02:10:00.557Z,1.60
2018-11-29T02:12:30.854Z,1.40
2018-11-29T02:15:01.114Z,1.30
2018-11-29T02:17:31.500Z,1.47
2018-11-29T02:20:02.000Z,1.40
2018-11-29T02:22:32.259Z,1.40
2018-11-29T02:25:02.622Z,1.60
2018-11-29T02:27:32.853Z,1.60
2018-11-29T02:30:03.081Z,2.20
2018-11-29T02:32:33.349Z,2.60
2018-11-29T02:35:03.798Z,2.30
2018-11-29T02:37:34.100Z,3.00
2018-11-29T02:40:04.672Z,2.00
2018-11-29T02:42:35.223Z,2.63
2018-11-29T02:45:06.339Z,1.80
2018-11-29T02:47:36.648Z,1.87
2018-11-29T02:50:07.685Z,1.90
2018-11-29T02:52:37.956Z,2.20
2018-11-29T02:55:09.509Z,2.30
2018-11-29T02:57:40.125Z,2.10
2018-11-29T03:00:13.125Z,2.03
2018-11-29T03:02:43.619Z,2.10
2018-11-29T03:05:14.108Z,2.37
2018-11-29T03:07:44.460Z,2.37
2018-11-29T03:10:16.190Z,2.60
2018-11-29T03:12:46.509Z,2.50
2018-11-29T03:15:16.948Z,2.53
2018-11-29T03:17:47.227Z,2.30
2018-11-29T03:20:17.377Z,2.80
2018-11-29T03:22:47.620Z,2.43
2018-11-29T03:25:18.030Z,2.27
2018-11-29T03:27:48.453Z,2.70
2018-11-29T03:30:20.980Z,2.03
2018-11-29T03:32:51.453Z,2.30
2018-11-29T03:35:21.803Z,2.30
2018-11-29T03:37:52.023Z,2.40
2018-11-29T03:40:22.342Z,2.47
2018-11-29T03:42:52.637Z,2.70
2018-11-29T03:45:22.838Z,2.33
2018-11-29T03:47:53.082Z,3.23
2018-11-29T03:50:23.370Z,3.20
2018-11-29T03:52:53.701Z,3.57
2018-11-29T03:55:23.940Z,3.50
2018-11-29T03:57:54.222Z,3.40
2018-11-29T04:00:24.675Z,3.70
2018-11-29T04:02:54.997Z,3.30
2018-11-29T04:05:25.377Z,3.70
2018-11-29T04:07:55.701Z,3.30
2018-11-29T04:10:25.925Z,3.33
2018-11-29T04:12:56.296Z,3.73
2018-11-29T04:15:26.644Z,3.30
2018-11-29T04:17:56.871Z,3.70
2018-11-29T04:20:27.137Z,3.93
2018-11-29T04:22:57.433Z,3.90
2018-11-29T04:25:27.724Z,4.20
2018-11-29T04:27:58.275Z,3.90
2018-11-29T04:30:28.633Z,4.30
2018-11-29T04:32:58.855Z,4.50
2018-11-29T04:35:29.168Z,5.07
2018-11-29T04:37:59.655Z,5.10
2018-11-29T04:40:29.928Z,5.57
2018-11-29T04:43:00.668Z,5.87
2018-11-29T04:45:43.477Z,5.43
2018-11-29T04:48:13.778Z,6.17
2018-11-29T04:50:44.108Z,5.47
2018-11-29T04:53:14.411Z,5.53
2018-11-29T04:55:44.937Z,6.17
2018-11-29T04:58:15.153Z,6.97
2018-11-29T05:00:45.796Z,7.00
2018-11-29T05:03:15.999Z,5.80
2018-11-29T05:05:46.330Z,5.07
2018-11-29T05:08:16.555Z,4.77
2018-11-29T05:10:46.878Z,4.80
2018-11-29T05:13:17.271Z,4.37
2018-11-29T05:15:47.813Z,6.10
2018-11-29T05:18:18.482Z,9.10
2018-11-29T05:20:48.808Z,6.63
2018-11-29T05:23:19.009Z,5.67
2018-11-29T05:25:49.348Z,5.53
2018-11-29T05:28:19.693Z,5.40
2018-11-29T05:30:50.208Z,5.77
2018-11-29T05:33:20.841Z,5.80
2018-11-29T05:35:52.026Z,6.03
2018-11-29T05:38:22.562Z,7.23
2018-11-29T05:40:59.425Z,6.23
2018-11-29T05:43:29.753Z,5.63
2018-11-29T05:46:00.502Z,6.00
2018-11-29T05:48:31.004Z,6.33
2018-11-29T05:51:01.239Z,5.87
2018-11-29T05:53:31.612Z,5.57
2018-11-29T05:56:01.811Z,4.83
2018-11-29T05:58:32.259Z,4.43
2018-11-29T06:01:06.155Z,4.50
2018-11-29T06:03:37.459Z,4.10
2018-11-29T06:06:08.392Z,3.93
2018-11-29T06:08:38.919Z,4.50
2018-11-29T06:11:09.255Z,4.63
2018-11-29T06:13:39.536Z,4.80
2018-11-29T06:16:09.843Z,9.27
2018-11-29T06:18:40.084Z,6.53
2018-11-29T06:21:10.644Z,7.50
2018-11-29T06:23:41.284Z,29.80
2018-11-29T06:26:11.880Z,17.87
2018-11-29T06:28:42.629Z,7.60
2018-11-29T06:31:13.234Z,18.30
2018-11-29T06:33:43.950Z,18.53
2018-11-29T06:36:14.874Z,30.33
2018-11-29T06:38:45.562Z,14.07
2018-11-29T06:41:16.253Z,14.53
2018-11-29T06:43:47.068Z,13.33
2018-11-29T06:46:17.727Z,17.57
2018-11-29T06:48:48.286Z,16.03
2018-11-29T06:51:19.106Z,13.57
2018-11-29T06:53:59.468Z,10.10
2018-11-29T06:56:30.528Z,11.10
2018-11-29T06:59:01.092Z,10.20
2018-11-29T07:01:31.865Z,10.27
2018-11-29T07:04:02.629Z,9.77
2018-11-29T07:06:33.315Z,11.20
2018-11-29T07:09:04.347Z,17.40
2018-11-29T07:11:34.828Z,40.33
2018-11-29T07:14:05.742Z,28.10
2018-11-29T07:16:36.397Z,56.27
2018-11-29T07:19:07.648Z,66.57
2018-11-29T07:21:57.010Z,29.93
2018-11-29T07:24:28.169Z,44.47
2018-11-29T07:26:58.872Z,17.80
2018-11-29T07:29:29.578Z,18.93
2018-11-29T07:31:59.942Z,20.57
2018-11-29T07:34:30.428Z,7.33
2018-11-29T07:37:00.908Z,15.63
2018-11-29T07:39:31.473Z,6.43
2018-11-29T07:42:02.078Z,8.60
2018-11-29T07:44:32.669Z,9.17
2018-11-29T07:47:03.325Z,9.53
2018-11-29T07:49:34.005Z,4.30
2018-11-29T07:52:05.059Z,10.00
2018-11-29T07:54:35.914Z,15.40
2018-11-29T07:57:06.617Z,7.23
2018-11-29T07:59:37.627Z,3.70
2018-11-29T08:02:08.665Z,8.53
2018-11-29T08:04:39.235Z,27.57
2018-11-29T08:07:09.868Z,6.90
2018-11-29T08:09:40.466Z,5.20
2018-11-29T08:12:11.103Z,7.10
2018-11-29T08:14:41.634Z,7.03
2018-11-29T08:17:12.784Z,9.27
2018-11-29T08:19:43.392Z,27.20
2018-11-29T08:22:17.262Z,33.80
2018-11-29T08:24:48.031Z,10.63
2018-11-29T08:27:19.021Z,26.47
2018-11-29T08:29:49.912Z,20.13
2018-11-29T08:32:20.654Z,26.27
2018-11-29T08:34:51.506Z,17.53
2018-11-29T08:37:22.265Z,21.03
2018-11-29T08:39:53.013Z,20.97
2018-11-29T08:42:23.852Z,11.90
2018-11-29T08:44:54.466Z,14.00
2018-11-29T08:47:24.945Z,34.30
2018-11-29T08:49:55.709Z,20.70
2018-11-29T08:52:26.333Z,18.30
2018-11-29T08:54:58.342Z,16.90
2018-11-29T08:57:29.276Z,24.00
2018-11-29T09:00:00.251Z,12.93
2018-11-29T09:02:31.031Z,4.83
2018-11-29T09:05:01.618Z,13.37
2018-11-29T09:07:32.424Z,16.30
2018-11-29T09:10:05.148Z,15.57
2018-11-29T09:12:36.108Z,16.30
2018-11-29T09:15:08.189Z,14.27
2018-11-29T09:17:39.020Z,23.73
2018-11-29T09:20:18.337Z,7.87
2018-11-29T09:22:49.006Z,14.57
2018-11-29T09:25:21.644Z,12.27
2018-11-29T09:27:52.713Z,13.23
2018-11-29T09:30:24.491Z,5.43
2018-11-29T09:32:55.679Z,7.80
2018-11-29T09:35:26.232Z,21.00
2018-11-29T09:37:56.682Z,10.93
2018-11-29T09:40:27.667Z,19.67
2018-11-29T09:42:58.466Z,23.33
2018-11-29T09:45:29.130Z,17.77
2018-11-29T09:47:59.739Z,8.20
2018-11-29T09:50:30.394Z,17.30
2018-11-29T09:53:01.278Z,10.07
2018-11-29T09:55:31.834Z,12.00
2018-11-29T09:58:02.576Z,5.77
2018-11-29T10:00:33.586Z,5.80
2018-11-29T10:03:09.314Z,7.37
2018-11-29T10:05:40.237Z,6.90
2018-11-29T10:08:12.356Z,8.23
2018-11-29T10:10:42.451Z,4.10
2018-11-29T10:13:12.960Z,6.00
2018-11-29T10:15:43.718Z,12.50
2018-11-29T10:18:14.166Z,7.80
2018-11-29T10:20:44.828Z,33.00
2018-11-29T10:23:15.465Z,8.57
2018-11-29T10:25:46.216Z,9.20
2018-11-29T10:28:17.655Z,41.13
2018-11-29T10:30:51.504Z,20.43
2018-11-29T10:33:22.137Z,16.80
2018-11-29T10:35:58.725Z,29.90
2018-11-29T10:38:23.100Z,13.53
2018-11-29T10:40:53.557Z,22.10
2018-11-29T10:43:24.133Z,9.40
2018-11-29T10:45:54.764Z,28.10
2018-11-29T10:48:25.868Z,22.00
2018-11-29T10:50:56.604Z,32.90
2018-11-29T10:53:27.220Z,16.80
2018-11-29T10:55:57.728Z,13.57
2018-11-29T10:58:28.460Z,33.10
2018-11-29T11:01:03.999Z,28.10
2018-11-29T11:03:34.865Z,39.03
2018-11-29T11:06:05.444Z,27.40
2018-11-29T11:08:36.019Z,23.83
2018-11-29T11:11:08.753Z,13.33
2018-11-29T11:13:39.933Z,19.43
2018-11-29T11:16:10.638Z,24.93
2018-11-29T11:18:41.385Z,36.80
2018-11-29T11:21:15.128Z,41.80
2018-11-29T11:23:48.968Z,26.77
2018-11-29T11:26:19.884Z,25.07
2018-11-29T11:28:51.842Z,25.80
2018-11-29T11:31:30.897Z,21.67
2018-11-29T11:33:54.691Z,22.13
2018-11-29T11:36:25.304Z,32.50
2018-11-29T11:38:56.082Z,26.07
2018-11-29T11:41:26.594Z,21.63
2018-11-29T11:43:57.133Z,18.13
2018-11-29T11:46:27.654Z,8.20
2018-11-29T11:48:58.219Z,7.40
2018-11-29T11:51:28.690Z,16.60
2018-11-29T11:53:59.388Z,20.50
2018-11-29T11:56:29.983Z,7.40
2018-11-29T11:59:00.444Z,9.00
2018-11-29T12:01:31.948Z,10.20
2018-11-29T12:04:02.738Z,5.90
2018-11-29T12:06:33.182Z,7.47
2018-11-29T12:09:04.499Z,7.90
2018-11-29T12:11:35.235Z,8.67
2018-11-29T12:14:10.291Z,6.93
2018-11-29T12:16:43.407Z,6.37
2018-11-29T12:19:18.735Z,6.20
2018-11-29T12:21:52.188Z,8.03
2018-11-29T12:24:23.307Z,5.90
2018-11-29T12:26:54.141Z,5.30
2018-11-29T12:29:26.627Z,8.30
2018-11-29T12:34:26.152Z,12.00
2018-11-29T12:36:56.458Z,14.83
2018-11-29T12:39:27.340Z,9.63
2018-11-29T12:41:57.838Z,8.10
2018-11-29T12:44:28.529Z,7.20
2018-11-29T12:46:59.090Z,7.13
2018-11-29T12:49:29.646Z,8.97
2018-11-29T12:52:00.579Z,6.70
2018-11-29T12:54:31.170Z,7.80
2018-11-29T12:57:01.526Z,8.23
2018-11-29T12:59:31.980Z,6.97
2018-11-29T13:02:02.259Z,8.30
2018-11-29T13:04:33.569Z,8.10
2018-11-29T13:09:33.299Z,11.83
2018-11-29T13:12:03.877Z,12.37
2018-11-29T13:14:34.750Z,10.03
2018-11-29T13:17:05.577Z,16.90
2018-11-29T13:19:35.948Z,19.10
2018-11-29T13:22:06.859Z,17.93
2018-11-29T13:24:37.862Z,26.43
2018-11-29T13:27:08.625Z,45.67
2018-11-29T13:29:39.144Z,42.03
2018-11-29T13:32:09.900Z,31.93
2018-11-29T13:34:40.312Z,30.30
2018-11-29T13:37:10.793Z,28.10
2018-11-29T13:39:41.451Z,12.10
2018-11-29T13:42:12.780Z,35.03
2018-11-29T13:44:44.165Z,32.60
2018-11-29T13:47:14.745Z,42.17
2018-11-29T13:49:45.298Z,31.50
2018-11-29T13:52:15.659Z,57.73
2018-11-29T13:54:46.142Z,52.70
2018-11-29T13:57:16.625Z,33.33
2018-11-29T13:59:47.121Z,44.37
2018-11-29T14:02:17.429Z,40.40
2018-11-29T14:04:47.770Z,58.57
2018-11-29T14:07:18.200Z,29.70
2018-11-29T14:09:49.032Z,14.10
2018-11-29T14:12:19.621Z,6.17
2018-11-29T14:14:50.242Z,14.83
2018-11-29T14:17:20.842Z,10.10
2018-11-29T14:19:51.659Z,21.60
2018-11-29T14:22:22.061Z,10.53
2018-11-29T14:24:52.407Z,21.77
2018-11-29T14:27:23.017Z,17.77
2018-11-29T14:29:53.390Z,27.47
2018-11-29T14:32:23.948Z,18.00
2018-11-29T14:34:54.476Z,32.33
2018-11-29T14:37:25.168Z,44.67
2018-11-29T14:39:55.833Z,13.03
2018-11-29T14:42:27.197Z,5.80
2018-11-29T14:44:57.901Z,8.87
2018-11-29T14:47:30.746Z,7.93
2018-11-29T14:50:01.443Z,7.53
2018-11-29T14:52:31.990Z,6.40
2018-11-29T14:55:02.497Z,5.27
2018-11-29T14:57:32.729Z,5.93
2018-11-29T15:00:03.203Z,9.27
2018-11-29T15:02:33.633Z,6.03
2018-11-29T15:05:07.754Z,8.17
2018-11-29T15:07:34.473Z,27.03
2018-11-29T15:10:05.477Z,16.63
2018-11-29T15:12:36.008Z,8.70
2018-11-29T15:15:07.901Z,11.43
2018-11-29T15:17:38.749Z,8.13
2018-11-29T15:20:21.557Z,15.50
2018-11-29T15:22:51.982Z,20.33
2018-11-29T15:25:22.447Z,5.63
2018-11-29T15:27:52.831Z,6.67
2018-11-29T15:30:24.136Z,18.17
2018-11-29T15:32:55.032Z,16.10
2018-11-29T15:35:25.963Z,22.33
2018-11-29T15:37:56.726Z,11.50
2018-11-29T15:40:27.317Z,32.40
2018-11-29T15:42:57.687Z,24.07
2018-11-29T15:45:32.370Z,56.30
2018-11-29T15:48:03.057Z,47.93
2018-11-29T15:50:33.850Z,68.73
2018-11-29T15:53:04.331Z,16.90
2018-11-29T15:55:35.164Z,39.87
2018-11-29T15:58:06.296Z,13.67
2018-11-29T16:00:36.760Z,34.17
2018-11-29T16:03:09.213Z,52.47
2018-11-29T16:05:41.247Z,100.57
2018-11-29T16:08:10.015Z,46.33
2018-11-29T16:10:40.328Z,58.33
2018-11-29T16:13:10.892Z,32.10
2018-11-29T16:15:41.440Z,15.23
2018-11-29T16:18:11.932Z,67.77
2018-11-29T16:20:42.329Z,73.80
2018-11-29T16:23:12.695Z,37.57
2018-11-29T16:25:42.962Z,48.77
2018-11-29T16:28:14.116Z,43.07
2018-11-29T16:30:49.655Z,67.27
2018-11-29T16:33:24.319Z,101.03
2018-11-29T16:35:54.956Z,79.30
2018-11-29T16:38:25.733Z,41.27
2018-11-29T16:40:57.051Z,14.70
2018-11-29T16:43:28.125Z,13.77
2018-11-29T16:45:58.444Z,20.60
2018-11-29T16:48:30.994Z,45.90
2018-11-29T16:51:02.866Z,36.03
2018-11-29T16:53:33.572Z,49.63
2018-11-29T16:56:03.815Z,61.67
2018-11-29T16:58:34.263Z,61.73
2018-11-29T17:01:08.879Z,54.57
2018-11-29T17:03:36.819Z,45.27
2018-11-29T17:06:07.528Z,43.77
2018-11-29T17:08:38.059Z,31.20
2018-11-29T17:11:09.971Z,37.17
2018-11-29T17:13:40.620Z,30.50
2018-11-29T17:16:11.240Z,33.87
2018-11-29T17:18:41.567Z,28.23
2018-11-29T17:21:11.919Z,46.47
2018-11-29T17:23:42.172Z,42.37
2018-11-29T17:26:12.732Z,29.53
2018-11-29T17:28:43.394Z,22.57
2018-11-29T17:31:13.801Z,26.50
2018-11-29T17:33:44.588Z,48.13
2018-11-29T17:36:15.161Z,28.67
2018-11-29T17:38:45.553Z,48.23
2018-11-29T17:41:16.019Z,38.47
2018-11-29T17:43:46.570Z,38.20
2018-11-29T17:46:17.024Z,27.90
2018-11-29T17:48:47.218Z,22.73
2018-11-29T17:51:17.634Z,23.43
2018-11-29T17:53:48.003Z,55.47
2018-11-29T17:56:18.583Z,12.47
2018-11-29T17:58:49.127Z,11.33
2018-11-29T18:01:20.284Z,57.73
2018-11-29T18:03:52.043Z,47.57
2018-11-29T18:06:23.685Z,57.40
2018-11-29T18:08:57.658Z,24.23
2018-11-29T18:11:30.390Z,24.97
2018-11-29T18:14:02.357Z,52.13
2018-11-29T18:16:34.376Z,33.13
2018-11-29T18:19:05.998Z,33.97
2018-11-29T18:21:38.046Z,49.57
2018-11-29T18:24:10.631Z,52.90
2018-11-29T18:26:42.406Z,39.37
2018-11-29T18:29:14.754Z,53.33
2018-11-29T18:31:48.058Z,36.50
2018-11-29T18:34:21.294Z,23.10
2018-11-29T18:36:54.377Z,37.93
2018-11-29T18:39:27.630Z,11.60
2018-11-29T18:42:00.901Z,20.40
2018-11-29T18:44:32.572Z,28.37
2018-11-29T18:47:03.612Z,35.10
2018-11-29T18:49:34.070Z,33.13
2018-11-29T18:52:05.219Z,23.63
2018-11-29T18:54:36.051Z,32.17
2018-11-29T18:57:06.675Z,11.40
2018-11-29T18:59:37.238Z,7.80
2018-11-29T19:02:09.668Z,4.37
2018-11-29T19:04:42.333Z,4.57
2018-11-29T19:07:15.711Z,3.93
2018-11-29T19:09:47.975Z,5.63
2018-11-29T19:12:20.737Z,4.97
2018-11-29T19:14:53.912Z,5.90
2018-11-29T19:17:29.508Z,8.47
2018-11-29T19:23:03.188Z,12.77
2018-11-29T19:25:36.576Z,37.40
2018-11-29T19:28:09.760Z,12.07
2018-11-29T19:30:42.438Z,7.77
2018-11-29T19:33:23.294Z,7.70
2018-11-29T19:35:56.907Z,32.90
2018-11-29T19:38:30.069Z,50.83
2018-11-29T19:41:02.985Z,37.00
2018-11-29T19:43:36.242Z,30.77
2018-11-29T19:46:08.932Z,42.87
2018-11-29T19:48:41.308Z,5.90
2018-11-29T19:51:12.588Z,5.47
2018-11-29T19:53:43.832Z,34.20
2018-11-29T19:56:15.417Z,62.37
2018-11-29T19:58:46.864Z,61.87
2018-11-29T20:01:18.134Z,34.57
2018-11-29T20:03:50.649Z,41.60
2018-11-29T20:06:21.843Z,12.03
2018-11-29T20:08:52.980Z,9.53
2018-11-29T20:11:24.325Z,9.30
2018-11-29T20:16:23.884Z,23.13
2018-11-29T20:18:54.604Z,23.90
2018-11-29T20:21:26.070Z,19.27
2018-11-29T20:23:56.995Z,14.63
2018-11-29T20:26:29.749Z,8.27
2018-11-29T20:29:00.572Z,5.20
2018-11-29T20:31:33.927Z,5.23
2018-11-29T20:34:06.743Z,7.50
2018-11-29T20:36:40.025Z,24.93
2018-11-29T20:39:11.454Z,28.73
2018-11-29T20:41:42.325Z,38.03
2018-11-29T20:44:13.134Z,42.67
2018-11-29T20:46:43.936Z,58.30
2018-11-29T20:49:14.533Z,44.57
2018-11-29T20:51:45.411Z,22.03
2018-11-29T20:54:16.064Z,23.97
2018-11-29T20:56:46.776Z,16.57
2018-11-29T20:59:19.736Z,12.20
2018-11-29T21:01:50.920Z,9.47
2018-11-29T21:04:21.717Z,10.50
2018-11-29T21:06:52.448Z,33.47
2018-11-29T21:09:23.075Z,11.63
2018-11-29T21:11:53.606Z,8.33
2018-11-29T21:14:24.370Z,11.07
2018-11-29T21:16:56.322Z,10.60
2018-11-29T21:19:27.534Z,9.83
2018-11-29T21:21:58.745Z,7.33
2018-11-29T21:24:30.056Z,5.70
2018-11-29T21:27:01.674Z,3.80
2018-11-29T21:29:33.381Z,3.40
2018-11-29T21:32:04.892Z,3.07
2018-11-29T21:34:35.897Z,3.00
2018-11-29T21:37:07.322Z,3.27
2018-11-29T21:39:38.025Z,3.23
2018-11-29T21:42:09.276Z,3.80
2018-11-29T21:44:40.933Z,3.60
2018-11-29T21:47:13.459Z,4.57
2018-11-29T21:49:44.474Z,5.13
2018-11-29T21:52:15.730Z,5.00
2018-11-29T21:54:46.622Z,5.50
2018-11-29T21:57:17.622Z,5.77
2018-11-29T21:59:49.357Z,7.97
2018-11-29T22:02:21.964Z,6.90
2018-11-29T22:04:53.057Z,6.20
2018-11-29T22:07:24.242Z,4.90
2018-11-29T22:09:54.783Z,5.50
2018-11-29T22:12:25.359Z,8.90
2018-11-29T22:14:56.039Z,5.10
2018-11-29T22:17:26.617Z,5.03
2018-11-29T22:19:58.404Z,4.77
2018-11-29T22:22:28.662Z,4.70
2018-11-29T22:24:59.182Z,4.53
2018-11-29T22:27:29.788Z,4.57
2018-11-29T22:30:00.409Z,4.47
2018-11-29T22:32:31.533Z,4.37
2018-11-29T22:35:02.066Z,4.73
2018-11-29T22:37:32.676Z,4.60
2018-11-29T22:40:03.322Z,4.67
2018-11-29T22:42:33.873Z,4.90
2018-11-29T22:45:04.637Z,5.50
2018-11-29T22:47:35.203Z,6.17
2018-11-29T22:50:07.277Z,6.43
2018-11-29T22:52:37.921Z,5.90
2018-11-29T22:55:08.780Z,5.87
2018-11-29T22:57:39.320Z,5.10
2018-11-29T23:00:14.593Z,4.90
2018-11-29T23:02:45.298Z,5.13
2018-11-29T23:05:15.942Z,4.27
2018-11-29T23:07:46.489Z,4.67
2018-11-29T23:10:17.220Z,4.90
2018-11-29T23:12:48.068Z,5.23
2018-11-29T23:15:18.746Z,5.30
2018-11-29T23:17:49.303Z,5.27
2018-11-29T23:20:20.014Z,5.83
2018-11-29T23:22:51.133Z,4.93
2018-11-29T23:25:21.994Z,5.40
2018-11-29T23:27:52.820Z,5.63
2018-11-29T23:30:23.487Z,5.17
2018-11-29T23:32:54.405Z,5.63
2018-11-29T23:35:25.353Z,5.77
2018-11-29T23:37:55.893Z,6.90
2018-11-29T23:40:26.469Z,6.50
2018-11-29T23:42:57.012Z,6.77
2018-11-29T23:45:27.681Z,6.60
2018-11-29T23:47:58.440Z,6.87
2018-11-29T23:50:28.936Z,5.97
2018-11-29T23:52:59.485Z,6.07
2018-11-29T23:55:30.117Z,4.67
2018-11-29T23:58:00.620Z,4.60
